createdAt,value
2022-09-28T00:01:47.958Z,298.15
2022-09-28T00:04:14.422Z,294.42
2022-09-28T00:06:41.322Z,293.48
2022-09-28T00:09:07.587Z,285.95
2022-09-28T00:11:33.931Z,287.58
2022-09-28T00:14:00.251Z,277.77
2022-09-28T00:16:26.742Z,274.98
2022-09-28T00:18:53.441Z,271.10
2022-09-28T00:21:19.815Z,269.23
2022-09-28T00:23:47.069Z,269.38
2022-09-28T00:26:13.346Z,264.92
2022-09-28T00:28:39.674Z,258.73
2022-09-28T00:31:06.046Z,253.75
2022-09-28T00:33:32.523Z,256.33
2022-09-28T00:35:58.945Z,252.85
2022-09-28T00:38:25.220Z,247.63
2022-09-28T00:40:51.504Z,245.50
2022-09-28T00:43:18.511Z,239.32
2022-09-28T00:45:44.781Z,234.45
2022-09-28T00:48:11.123Z,238.65
2022-09-28T00:50:37.463Z,235.50
2022-09-28T00:53:03.744Z,230.57
2022-09-28T00:55:30.022Z,224.73
2022-09-28T00:57:56.363Z,221.40
2022-09-28T01:00:22.876Z,216.73
2022-09-28T01:02:49.229Z,215.85
2022-09-28T01:05:15.689Z,212.73
2022-09-28T01:07:41.981Z,211.05
2022-09-28T01:10:08.276Z,208.02
2022-09-28T01:12:34.597Z,203.13
2022-09-28T01:15:00.967Z,199.55
2022-09-28T01:17:27.478Z,196.32
2022-09-28T01:19:54.173Z,197.85
2022-09-28T01:22:20.676Z,192.05
2022-09-28T01:24:46.926Z,192.68
2022-09-28T01:27:13.375Z,189.30
2022-09-28T01:29:39.813Z,185.43
2022-09-28T01:32:06.134Z,183.48
2022-09-28T01:34:32.626Z,177.93
2022-09-28T01:36:58.880Z,184.45
2022-09-28T01:39:25.260Z,178.45
2022-09-28T01:41:51.776Z,175.60
2022-09-28T01:44:18.084Z,171.32
2022-09-28T01:46:44.482Z,167.00
2022-09-28T01:49:11.131Z,167.32
2022-09-28T01:51:37.397Z,165.55
2022-09-28T01:54:03.685Z,161.13
2022-09-28T01:56:29.932Z,159.52
2022-09-28T01:58:56.422Z,159.23
2022-09-28T02:01:22.803Z,154.93
2022-09-28T02:03:49.097Z,152.20
2022-09-28T02:06:15.421Z,149.45
2022-09-28T02:08:41.709Z,148.40
2022-09-28T02:11:08.001Z,148.50
2022-09-28T02:13:34.245Z,144.88
2022-09-28T02:16:02.487Z,145.23
2022-09-28T02:18:31.646Z,140.52
2022-09-28T02:20:58.105Z,142.20
2022-09-28T02:23:24.686Z,139.38
2022-09-28T02:25:51.046Z,137.75
2022-09-28T02:28:18.845Z,134.15
2022-09-28T02:30:45.137Z,133.32
2022-09-28T02:33:11.512Z,130.70
2022-09-28T02:35:37.810Z,132.20
2022-09-28T02:38:04.171Z,127.35
2022-09-28T02:40:30.649Z,125.20
2022-09-28T02:42:56.980Z,125.53
2022-09-28T02:45:23.301Z,124.80
2022-09-28T02:47:49.625Z,122.65
2022-09-28T02:50:15.942Z,120.80
2022-09-28T02:52:42.180Z,119.65
2022-09-28T02:55:08.492Z,119.43
2022-09-28T02:57:34.958Z,119.15
2022-09-28T03:00:01.446Z,112.32
2022-09-28T03:02:27.795Z,114.40
2022-09-28T03:04:54.421Z,114.47
2022-09-28T03:07:20.740Z,111.95
2022-09-28T03:09:47.311Z,109.20
2022-09-28T03:12:13.540Z,109.07
2022-09-28T03:14:40.001Z,113.20
2022-09-28T03:17:06.432Z,108.85
2022-09-28T03:19:32.900Z,105.63
2022-09-28T03:21:59.420Z,105.97
2022-09-28T03:24:25.780Z,104.75
2022-09-28T03:26:52.089Z,103.82
2022-09-28T03:29:18.689Z,101.43
2022-09-28T03:31:45.195Z,98.55
2022-09-28T03:34:11.724Z,100.43
2022-09-28T03:36:38.124Z,94.65
2022-09-28T03:39:04.424Z,94.88
2022-09-28T03:41:32.168Z,95.40
2022-09-28T03:43:58.486Z,95.38
2022-09-28T03:46:24.782Z,96.43
2022-09-28T03:48:51.045Z,90.65
2022-09-28T03:51:17.446Z,89.90
2022-09-28T03:53:43.770Z,89.30
2022-09-28T03:56:10.061Z,89.30
2022-09-28T03:58:36.375Z,89.70
2022-09-28T04:01:03.805Z,86.20
2022-09-28T04:03:30.295Z,87.38
2022-09-28T04:05:56.693Z,85.03
2022-09-28T04:08:23.072Z,84.95
2022-09-28T04:10:49.823Z,81.95
2022-09-28T04:13:16.816Z,81.60
2022-09-28T04:15:43.218Z,82.00
2022-09-28T04:18:09.570Z,80.63
2022-09-28T04:20:35.821Z,77.25
2022-09-28T04:23:02.217Z,77.30
2022-09-28T04:25:29.272Z,75.15
2022-09-28T04:27:55.520Z,75.10
2022-09-28T04:30:21.845Z,74.20
2022-09-28T04:32:48.288Z,74.18
2022-09-28T04:35:14.696Z,71.10
2022-09-28T04:37:41.077Z,71.20
2022-09-28T04:40:07.327Z,72.32
2022-09-28T04:42:33.588Z,72.10
2022-09-28T04:45:00.024Z,69.00
2022-09-28T04:47:26.308Z,68.68
2022-09-28T04:49:52.597Z,67.03
2022-09-28T04:52:18.906Z,67.10
2022-09-28T04:54:45.175Z,66.00
2022-09-28T04:57:11.423Z,65.25
2022-09-28T04:59:37.784Z,64.75
2022-09-28T05:02:04.387Z,63.50
2022-09-28T05:04:30.705Z,62.22
2022-09-28T05:06:57.030Z,62.13
2022-09-28T05:09:23.404Z,60.65
2022-09-28T05:11:50.059Z,60.72
2022-09-28T05:14:16.444Z,58.88
2022-09-28T05:16:42.740Z,60.80
2022-09-28T05:19:09.455Z,57.97
2022-09-28T05:21:36.356Z,78.78
2022-09-28T05:24:02.681Z,71.13
2022-09-28T05:26:28.930Z,71.20
2022-09-28T05:28:55.420Z,68.38
2022-09-28T05:31:21.679Z,67.90
2022-09-28T05:33:48.048Z,67.50
2022-09-28T05:36:14.342Z,67.05
2022-09-28T05:38:40.935Z,66.05
2022-09-28T05:41:07.335Z,57.63
2022-09-28T05:43:33.697Z,53.55
2022-09-28T05:45:59.972Z,52.95
2022-09-28T05:48:26.511Z,47.45
2022-09-28T05:50:52.779Z,45.58
2022-09-28T05:53:19.171Z,47.38
2022-09-28T05:55:45.702Z,47.42
2022-09-28T05:58:12.198Z,46.28
2022-09-28T06:00:38.714Z,44.90
2022-09-28T06:03:08.717Z,44.80
2022-09-28T06:08:01.852Z,42.75
2022-09-28T06:10:28.174Z,43.47
2022-09-28T06:12:54.473Z,41.20
2022-09-28T06:15:20.878Z,40.35
2022-09-28T06:17:47.463Z,42.72
2022-09-28T06:20:14.067Z,40.67
2022-09-28T06:22:40.463Z,40.22
2022-09-28T06:25:06.743Z,38.47
2022-09-28T06:27:33.289Z,37.92
2022-09-28T06:29:59.579Z,37.60
2022-09-28T06:32:25.887Z,37.50
2022-09-28T06:34:56.162Z,36.08
2022-09-28T06:37:22.746Z,34.83
2022-09-28T06:39:49.022Z,36.33
2022-09-28T06:42:15.526Z,34.67
2022-09-28T06:44:42.133Z,34.50
2022-09-28T06:47:08.573Z,35.30
2022-09-28T06:49:35.091Z,32.92
2022-09-28T06:52:01.660Z,33.40
2022-09-28T06:54:28.187Z,31.17
2022-09-28T06:56:54.536Z,31.13
2022-09-28T06:59:20.941Z,29.20
2022-09-28T07:01:47.482Z,29.00
2022-09-28T07:04:13.991Z,29.23
2022-09-28T07:06:40.308Z,29.10
2022-09-28T07:09:28.288Z,27.67
2022-09-28T07:11:53.141Z,27.33
2022-09-28T07:14:38.986Z,27.10
2022-09-28T07:17:13.797Z,25.95
2022-09-28T07:19:40.654Z,26.42
2022-09-28T07:22:07.256Z,26.13
2022-09-28T07:24:33.659Z,24.23
2022-09-28T07:26:59.975Z,25.20
2022-09-28T07:29:26.693Z,24.38
2022-09-28T07:31:53.396Z,24.77
2022-09-28T07:34:19.701Z,23.88
2022-09-28T07:36:45.964Z,23.15
2022-09-28T07:39:12.292Z,22.45
2022-09-28T07:41:38.537Z,22.88
2022-09-28T07:44:05.163Z,23.05
2022-09-28T07:46:31.554Z,24.00
2022-09-28T07:48:57.859Z,22.67
2022-09-28T07:51:24.123Z,23.08
2022-09-28T07:53:50.406Z,22.55
2022-09-28T07:56:16.847Z,21.67
2022-09-28T07:58:43.151Z,20.90
2022-09-28T08:01:09.957Z,22.88
2022-09-28T08:03:36.511Z,20.88
2022-09-28T08:06:02.785Z,20.65
2022-09-28T08:08:29.081Z,20.50
2022-09-28T08:13:27.356Z,19.13
2022-09-28T08:15:53.929Z,19.00
2022-09-28T08:18:20.296Z,19.13
2022-09-28T08:23:21.804Z,17.98
2022-09-28T08:25:48.199Z,18.90
2022-09-28T08:28:15.772Z,16.42
2022-09-28T08:30:42.192Z,14.68
2022-09-28T08:33:08.631Z,15.45
2022-09-28T08:35:34.982Z,16.25
2022-09-28T08:38:02.482Z,15.27
2022-09-28T08:40:29.179Z,15.48
2022-09-28T08:42:55.514Z,14.80
2022-09-28T08:45:23.171Z,14.30
2022-09-28T08:47:49.922Z,15.20
2022-09-28T08:50:16.225Z,15.10
2022-09-28T08:52:42.814Z,14.20
2022-09-28T08:55:09.215Z,11.60
2022-09-28T08:57:35.519Z,10.18
2022-09-28T09:00:01.886Z,11.38
2022-09-28T09:02:28.338Z,10.65
2022-09-28T09:04:55.242Z,10.52
2022-09-28T09:07:21.718Z,9.30
2022-09-28T09:09:48.059Z,9.63
2022-09-28T09:12:15.233Z,10.57
2022-09-28T09:14:41.490Z,9.48
2022-09-28T09:17:07.856Z,10.10
2022-09-28T09:19:34.152Z,9.73
2022-09-28T09:22:00.454Z,9.75
2022-09-28T09:24:26.762Z,10.23
2022-09-28T09:26:53.017Z,8.98
2022-09-28T09:29:19.272Z,8.98
2022-09-28T09:31:45.553Z,9.15
2022-09-28T09:34:12.153Z,8.43
2022-09-28T09:36:38.486Z,8.95
2022-09-28T09:39:04.775Z,9.20
2022-09-28T09:41:31.089Z,8.63
2022-09-28T09:43:57.708Z,8.48
2022-09-28T09:46:24.094Z,9.25
2022-09-28T09:48:50.584Z,9.30
2022-09-28T09:51:16.885Z,8.48
2022-09-28T09:53:43.184Z,8.02
2022-09-28T09:56:09.501Z,8.75
2022-09-28T09:58:35.804Z,8.35
2022-09-28T10:01:02.139Z,8.35
2022-09-28T10:03:28.533Z,7.68
2022-09-28T10:05:55.260Z,7.80
2022-09-28T10:08:21.540Z,8.30
2022-09-28T10:10:47.768Z,7.90
2022-09-28T10:13:14.072Z,7.22
2022-09-28T10:15:40.401Z,7.72
2022-09-28T10:18:06.708Z,7.15
2022-09-28T10:20:33.161Z,7.55
2022-09-28T10:22:59.483Z,6.47
2022-09-28T10:25:25.899Z,7.38
2022-09-28T10:27:52.154Z,7.40
2022-09-28T10:30:18.430Z,7.10
2022-09-28T10:32:44.807Z,6.53
2022-09-28T10:35:11.575Z,7.47
2022-09-28T10:37:38.861Z,7.32
2022-09-28T10:40:05.311Z,6.82
2022-09-28T10:42:31.790Z,6.78
2022-09-28T10:44:58.113Z,7.10
2022-09-28T10:47:24.357Z,7.10
2022-09-28T10:49:51.409Z,7.43
2022-09-28T10:52:17.630Z,6.68
2022-09-28T10:54:43.904Z,6.63
2022-09-28T10:57:13.363Z,7.15
2022-09-28T10:59:39.944Z,6.63
2022-09-28T11:02:06.326Z,6.00
2022-09-28T11:04:32.646Z,6.43
2022-09-28T11:09:29.790Z,7.32
2022-09-28T11:11:57.332Z,5.88
2022-09-28T11:14:23.824Z,7.00
2022-09-28T11:16:50.258Z,6.40
2022-09-28T11:19:16.775Z,6.43
2022-09-28T11:21:43.155Z,6.20
2022-09-28T11:24:09.444Z,6.78
2022-09-28T11:26:35.817Z,6.22
2022-09-28T11:29:02.193Z,5.80
2022-09-28T11:31:28.632Z,5.70
2022-09-28T11:33:54.978Z,5.35
2022-09-28T11:36:21.424Z,5.72
2022-09-28T11:38:48.340Z,5.78
2022-09-28T11:41:15.576Z,6.47
2022-09-28T11:43:41.849Z,5.97
2022-09-28T11:46:09.655Z,5.65
2022-09-28T11:48:36.044Z,5.10
2022-09-28T11:51:02.355Z,5.07
2022-09-28T11:53:28.661Z,5.38
2022-09-28T11:55:54.906Z,5.93
2022-09-28T11:58:21.265Z,5.20
2022-09-28T12:00:47.531Z,5.70
2022-09-28T12:03:13.893Z,5.28
2022-09-28T12:05:40.323Z,5.68
2022-09-28T12:08:06.728Z,6.93
2022-09-28T12:10:33.021Z,5.68
2022-09-28T12:12:59.829Z,5.80
2022-09-28T12:15:26.152Z,6.30
2022-09-28T12:17:52.954Z,5.13
2022-09-28T12:20:19.400Z,5.88
2022-09-28T12:22:45.769Z,5.90
2022-09-28T12:25:12.111Z,5.65
2022-09-28T12:27:38.399Z,5.95
2022-09-28T12:30:04.938Z,5.47
2022-09-28T12:32:31.270Z,5.60
2022-09-28T12:34:57.558Z,5.30
2022-09-28T12:37:23.853Z,5.25
2022-09-28T12:39:58.418Z,5.38
2022-09-28T12:42:25.060Z,5.95
2022-09-28T12:44:52.945Z,5.90
2022-09-28T12:47:22.188Z,4.93
2022-09-28T12:52:34.996Z,5.72
2022-09-28T12:55:01.409Z,5.82
2022-09-28T12:57:27.945Z,5.47
2022-09-28T12:59:54.298Z,5.60
2022-09-28T13:02:20.613Z,5.82
2022-09-28T13:04:47.119Z,6.35
2022-09-28T13:07:13.433Z,5.32
2022-09-28T13:09:40.690Z,5.32
2022-09-28T13:12:07.333Z,5.50
2022-09-28T13:14:33.930Z,5.82
2022-09-28T13:17:00.835Z,5.07
2022-09-28T13:19:27.813Z,5.55
2022-09-28T13:21:54.251Z,5.47
2022-09-28T13:24:32.102Z,5.28
2022-09-28T13:26:59.644Z,5.30
2022-09-28T13:29:26.039Z,5.00
2022-09-28T13:31:52.352Z,5.32
2022-09-28T13:34:18.685Z,5.30
2022-09-28T13:36:48.176Z,5.45
2022-09-28T13:39:14.896Z,5.50
2022-09-28T13:41:41.174Z,5.20
2022-09-28T13:44:07.540Z,5.13
2022-09-28T13:46:34.102Z,5.70
2022-09-28T13:49:00.339Z,4.82
2022-09-28T13:51:26.577Z,5.80
2022-09-28T13:53:53.019Z,6.63
2022-09-28T13:56:19.435Z,5.70
2022-09-28T13:58:45.931Z,5.80
2022-09-28T14:01:12.643Z,6.10
2022-09-28T14:03:38.929Z,5.50
2022-09-28T14:06:05.233Z,6.22
2022-09-28T14:08:31.557Z,6.07
2022-09-28T14:10:57.954Z,5.50
2022-09-28T14:13:24.613Z,5.55
2022-09-28T14:15:51.008Z,5.97
2022-09-28T14:18:17.407Z,5.88
2022-09-28T14:20:43.935Z,5.65
2022-09-28T14:23:10.362Z,6.03
2022-09-28T14:25:37.109Z,6.22
2022-09-28T14:28:03.424Z,5.20
2022-09-28T14:30:29.671Z,5.78
2022-09-28T14:32:55.931Z,5.70
2022-09-28T14:35:22.357Z,5.50
2022-09-28T14:37:48.620Z,5.38
2022-09-28T14:40:14.980Z,5.95
2022-09-28T14:42:41.361Z,8.10
2022-09-28T14:45:07.681Z,19.35
2022-09-28T14:47:34.048Z,23.92
2022-09-28T14:50:00.271Z,21.80
2022-09-28T14:52:26.637Z,23.42
2022-09-28T14:54:53.133Z,23.13
2022-09-28T14:57:19.755Z,21.42
2022-09-28T14:59:46.160Z,17.02
2022-09-28T15:02:12.403Z,18.15
2022-09-28T15:04:38.702Z,17.98
2022-09-28T15:07:05.230Z,16.83
2022-09-28T15:09:31.538Z,15.38
2022-09-28T15:11:57.881Z,16.15
2022-09-28T15:14:24.281Z,14.60
2022-09-28T15:16:50.948Z,11.32
2022-09-28T15:19:17.285Z,14.32
2022-09-28T15:21:43.566Z,12.35
2022-09-28T15:24:09.929Z,13.18
2022-09-28T15:26:36.231Z,11.52
2022-09-28T15:29:02.652Z,11.93
2022-09-28T15:31:29.047Z,12.40
2022-09-28T15:33:55.479Z,12.52
2022-09-28T15:36:22.583Z,11.57
2022-09-28T15:38:48.821Z,10.45
2022-09-28T15:41:15.093Z,10.57
2022-09-28T15:43:41.629Z,11.38
2022-09-28T15:46:08.092Z,10.48
2022-09-28T15:48:34.540Z,10.52
2022-09-28T15:51:00.792Z,10.07
2022-09-28T15:53:27.201Z,9.60
2022-09-28T15:55:53.517Z,10.50
2022-09-28T15:58:19.788Z,10.02
2022-09-28T16:00:46.048Z,9.80
2022-09-28T16:03:12.524Z,8.68
2022-09-28T16:05:38.850Z,8.25
2022-09-28T16:08:05.416Z,8.63
2022-09-28T16:10:31.705Z,8.35
2022-09-28T16:12:57.981Z,9.20
2022-09-28T16:15:24.310Z,9.00
2022-09-28T16:17:51.692Z,8.80
2022-09-28T16:20:17.969Z,9.07
2022-09-28T16:22:44.251Z,9.02
2022-09-28T16:25:10.522Z,8.48
2022-09-28T16:27:37.004Z,8.63
2022-09-28T16:30:03.297Z,8.60
2022-09-28T16:32:29.552Z,7.95
2022-09-28T16:34:55.853Z,7.88
2022-09-28T16:37:22.087Z,8.15
2022-09-28T16:39:48.507Z,7.88
2022-09-28T16:42:14.843Z,7.65
2022-09-28T16:44:41.208Z,7.50
2022-09-28T16:47:07.712Z,7.70
2022-09-28T16:49:34.426Z,6.68
2022-09-28T16:52:00.692Z,6.60
2022-09-28T16:54:27.019Z,7.78
2022-09-28T16:56:53.271Z,7.03
2022-09-28T16:59:19.641Z,7.07
2022-09-28T17:01:46.042Z,7.70
2022-09-28T17:04:12.385Z,6.28
2022-09-28T17:06:38.726Z,6.72
2022-09-28T17:09:05.156Z,7.15
2022-09-28T17:11:31.470Z,6.47
2022-09-28T17:13:57.891Z,6.20
2022-09-28T17:19:10.606Z,5.82
2022-09-28T17:21:36.897Z,6.72
2022-09-28T17:24:03.428Z,6.38
2022-09-28T17:26:29.796Z,5.97
2022-09-28T17:28:56.097Z,5.93
2022-09-28T17:31:22.393Z,6.22
2022-09-28T17:33:48.713Z,5.85
2022-09-28T17:36:15.101Z,6.25
2022-09-28T17:38:41.478Z,6.28
2022-09-28T17:41:08.250Z,5.97
2022-09-28T17:43:34.658Z,5.57
2022-09-28T17:46:01.026Z,6.25
2022-09-28T17:48:27.734Z,5.70
2022-09-28T17:50:54.005Z,5.45
2022-09-28T17:53:20.461Z,5.47
2022-09-28T17:55:46.753Z,6.30
2022-09-28T17:58:12.991Z,5.55
2022-09-28T18:00:39.237Z,5.28
2022-09-28T18:03:05.666Z,5.70
2022-09-28T18:05:32.097Z,5.70
2022-09-28T18:07:58.429Z,5.38
2022-09-28T18:10:24.682Z,5.50
2022-09-28T18:12:51.079Z,6.07
2022-09-28T18:15:17.465Z,5.28
2022-09-28T18:17:43.797Z,5.38
2022-09-28T18:20:11.505Z,5.65
2022-09-28T18:25:21.714Z,5.38
2022-09-28T18:27:48.185Z,5.43
2022-09-28T18:30:14.780Z,5.63
2022-09-28T18:32:41.966Z,4.55
2022-09-28T18:35:08.499Z,5.03
2022-09-28T18:37:34.877Z,4.72
2022-09-28T18:40:01.117Z,5.10
2022-09-28T18:42:27.443Z,5.00
2022-09-28T18:44:53.698Z,4.50
2022-09-28T18:47:20.024Z,5.13
2022-09-28T18:49:46.925Z,4.78
2022-09-28T18:52:13.449Z,4.80
2022-09-28T18:54:39.758Z,4.57
2022-09-28T18:57:06.058Z,5.22
2022-09-28T18:59:32.280Z,4.88
2022-09-28T19:01:58.683Z,4.50
2022-09-28T19:04:25.218Z,4.95
2022-09-28T19:06:51.568Z,4.90
2022-09-28T19:09:17.866Z,4.88
2022-09-28T19:11:44.193Z,5.10
2022-09-28T19:14:10.463Z,4.25
2022-09-28T19:16:36.862Z,4.70
2022-09-28T19:19:03.168Z,4.65
2022-09-28T19:21:29.477Z,4.70
2022-09-28T19:23:56.101Z,4.82
2022-09-28T19:26:22.327Z,3.88
2022-09-28T19:28:48.607Z,4.35
2022-09-28T19:31:14.890Z,4.30
2022-09-28T19:33:41.193Z,4.95
2022-09-28T19:36:07.607Z,4.30
2022-09-28T19:38:35.813Z,4.10
2022-09-28T19:41:02.204Z,4.43
2022-09-28T19:43:28.929Z,4.82
2022-09-28T19:45:55.260Z,4.68
2022-09-28T19:48:21.557Z,4.43
2022-09-28T19:50:48.064Z,4.40
2022-09-28T19:53:14.375Z,4.70
2022-09-28T19:55:40.755Z,4.00
2022-09-28T19:58:07.080Z,3.88
2022-09-28T20:00:33.442Z,4.63
2022-09-28T20:02:59.818Z,3.88
2022-09-28T20:05:26.161Z,4.00
2022-09-28T20:07:52.484Z,4.10
2022-09-28T20:10:19.713Z,4.10
2022-09-28T20:12:46.142Z,3.88
2022-09-28T20:15:12.414Z,4.05
2022-09-28T20:17:39.176Z,4.18
2022-09-28T20:20:05.545Z,3.90
2022-09-28T20:22:31.929Z,3.80
2022-09-28T20:24:58.565Z,4.00
2022-09-28T20:27:26.455Z,3.80
2022-09-28T20:29:53.182Z,4.03
2022-09-28T20:32:19.833Z,3.80
2022-09-28T20:34:46.367Z,4.20
2022-09-28T20:37:12.734Z,3.83
2022-09-28T20:39:44.091Z,4.45
2022-09-28T20:42:11.181Z,3.83
2022-09-28T20:44:38.161Z,4.07
2022-09-28T20:47:04.774Z,3.85
2022-09-28T20:49:31.141Z,3.83
2022-09-28T20:51:57.412Z,3.88
2022-09-28T20:54:23.722Z,3.97
2022-09-28T20:56:50.074Z,3.88
2022-09-28T20:59:16.849Z,3.67
2022-09-28T21:01:43.197Z,3.90
2022-09-28T21:04:09.918Z,3.75
2022-09-28T21:06:36.405Z,3.97
2022-09-28T21:09:02.725Z,3.70
2022-09-28T21:11:29.000Z,3.83
2022-09-28T21:13:55.292Z,3.83
2022-09-28T21:16:21.561Z,3.63
2022-09-28T21:18:47.899Z,3.33
2022-09-28T21:21:14.292Z,3.80
2022-09-28T21:23:40.529Z,3.53
2022-09-28T21:26:06.782Z,3.95
2022-09-28T21:28:33.276Z,4.10
2022-09-28T21:30:59.713Z,3.70
2022-09-28T21:33:26.210Z,3.55
2022-09-28T21:35:52.675Z,3.38
2022-09-28T21:38:19.072Z,3.75
2022-09-28T21:40:45.453Z,3.47
2022-09-28T21:43:11.844Z,3.38
2022-09-28T21:45:38.132Z,3.28
2022-09-28T21:48:04.418Z,3.38
2022-09-28T21:50:30.705Z,3.70
2022-09-28T21:52:57.246Z,3.42
2022-09-28T21:55:23.591Z,3.10
2022-09-28T21:57:49.883Z,2.95
2022-09-28T22:00:16.198Z,3.53
2022-09-28T22:02:42.927Z,3.40
2022-09-28T22:05:09.581Z,3.28
2022-09-28T22:07:35.902Z,3.33
2022-09-28T22:10:02.480Z,3.20
2022-09-28T22:12:28.762Z,3.58
2022-09-28T22:14:55.095Z,3.47
2022-09-28T22:17:21.421Z,3.72
2022-09-28T22:19:47.691Z,3.53
2022-09-28T22:22:14.101Z,3.33
2022-09-28T22:24:40.418Z,3.20
2022-09-28T22:27:06.698Z,3.17
2022-09-28T22:29:33.000Z,2.92
2022-09-28T22:31:59.263Z,3.08
2022-09-28T22:34:25.568Z,3.20
2022-09-28T22:36:51.862Z,3.38
2022-09-28T22:39:18.212Z,3.28
2022-09-28T22:41:44.472Z,2.88
2022-09-28T22:44:10.743Z,2.90
2022-09-28T22:46:37.285Z,3.17
2022-09-28T22:49:03.813Z,3.20
2022-09-28T22:51:30.163Z,3.35
2022-09-28T22:53:56.567Z,2.90
2022-09-28T22:56:22.898Z,3.08
2022-09-28T22:58:49.150Z,3.08
2022-09-28T23:01:15.595Z,3.35
2022-09-28T23:03:42.340Z,2.83
2022-09-28T23:06:08.634Z,3.00
2022-09-28T23:08:34.930Z,2.97
2022-09-28T23:11:01.202Z,3.00
2022-09-28T23:13:27.710Z,2.92
2022-09-28T23:15:54.891Z,2.83
2022-09-28T23:18:21.181Z,3.20
2022-09-28T23:20:47.463Z,2.65
2022-09-28T23:23:13.712Z,3.10
2022-09-28T23:25:39.960Z,2.80
2022-09-28T23:28:06.454Z,3.47
2022-09-28T23:30:32.883Z,3.13
2022-09-28T23:32:59.243Z,2.75
2022-09-28T23:35:25.603Z,2.78
2022-09-28T23:37:51.873Z,2.72
2022-09-28T23:40:18.232Z,3.03
2022-09-28T23:42:45.460Z,3.20
2022-09-28T23:45:11.733Z,2.97
2022-09-28T23:47:38.194Z,2.83
2022-09-28T23:50:04.454Z,2.90
2022-09-28T23:52:30.764Z,2.95
2022-09-28T23:54:57.002Z,2.75
2022-09-28T23:57:23.313Z,2.88
2022-09-28T23:59:49.567Z,3.00
